Rechercher aéroport 
image banner adimage banner adimage banner ad
image banner ad

72CL - Iron Mountain Pumping Plant

Situé à Desert Center, United States

ICAO - 72CL, IATA -

Données fournies par Airmate  

Information générale

Coordonnées: N34°8'3" W115°7'9"
Élévation : 890 feet MSL.
Variation magnétique : 13° East
Voir autres Aéroports à California

Données opérationnelles

Special qualification required
Heure actuelle UTC:
Heure actuelle locale:
Météo à : KBLH - Blythe ( 68 km )
METAR: KBLH 300114Z AUTO 14027G38KT 5SM VCTS HZ FEW014 38/16 A2971 RMK AO2 PK WND 14038/0109 LTG DSNT ALQDS PRESRR T03780156
TAF: KBLH 300109Z 3001/3024 15010KT P6SM VCTS SCT100CB BKN250 TEMPO 3001/3002 24020G30KT 5SM TSRA SCT080CB BKN100 FM300230 16008KT P6SM SCT100 BKN250 FM300600 16015G22KT P6SM VCSH SCT080 SCT150 BKN250 FM301000 19012KT P6SM SCT150 BKN250 FM301300 VRB06KT P6SM BKN100 BKN250
Voir NOTAMs / SUP AIP / TFR affectant cet aéroport [VIEW]
Fréquences de communication: [VIEW]

Pistes:

Identifiant RWYQFULongueur (ft)Largeur (ft)SurfaceLDA (ft)
17320030ASPH
35320030ASPH

Coordonnées de l'aéroport

Adresse: Desert Center United States

Vue satellite de 72CL